M I D A S
Marine Information and Data Acquisition System
Tripno 518 of the Zeeleeuw from 2003-06-18 07:52:01 to 2003-06-18 13:06:49
Back to CruiseResearch ActivitiesStationsMapUnderway DataData graphs

EquipmentUnitsComment
TimeDGPSUTC
LatitudeDGPSDM.mWGS84
LongitudeDGPSDM.mWGS84
HeadingGyrodeg 
SOGDGPSknotsSpeed over ground
COGDGPSdegCourse over ground
DepthEcho soundermeters200 kHz
Missing or incorrect values are displayed as -999
Navigation data collected by the RV Zeeleeuw from 2003-06-18 07:52:01 to 2003-06-18 13:06:49
                                                                                    Next 1000 lines
Time Latitude Longitude Heading SOG COG Depth
2003-06-18 07:52:07 51°14.16 2°55.38 332.4 9.4 329 -999
2003-06-18 07:52:13 51°14.18 2°55.37 330.3 9.5 327 -999
2003-06-18 07:52:17 51°14.18 2°55.36 328.8 9.5 326 -999
2003-06-18 07:52:23 51°14.2 2°55.34 327.8 9.5 324 -999
2003-06-18 07:52:29 51°14.21 2°55.33 326.3 9.7 323 -999
2003-06-18 07:52:33 51°14.22 2°55.32 325.4 9.8 322 -999
2003-06-18 07:52:37 51°14.23 2°55.31 324 10.1 320 -999
2003-06-18 07:52:43 51°14.24 2°55.29 322.3 10.2 319 -999
2003-06-18 07:52:47 51°14.25 2°55.28 319.7 10.4 317 -999
2003-06-18 07:52:53 51°14.26 2°55.26 318.1 10.5 315 -999
2003-06-18 07:52:57 51°14.27 2°55.24 317.4 10.6 313 -999
2003-06-18 07:53:03 51°14.28 2°55.22 317 10.7 312 -999
2003-06-18 07:53:07 51°14.29 2°55.21 316.3 10.8 312 -999
2003-06-18 07:53:13 51°14.3 2°55.19 314.8 10.9 311 -999
2003-06-18 07:53:17 51°14.31 2°55.17 314 11 309 -999
2003-06-18 07:53:23 51°14.32 2°55.15 313.9 11 309 -999
2003-06-18 07:53:29 51°14.33 2°55.12 313 11.1 308 -999
2003-06-18 07:53:33 51°14.34 2°55.11 312.2 11.2 308 -999
2003-06-18 07:53:37 51°14.35 2°55.09 311.3 11.2 307 -999
2003-06-18 07:53:43 51°14.36 2°55.07 310.4 11.2 306 -999
2003-06-18 07:53:47 51°14.36 2°55.05 307.7 11.3 305 -999
2003-06-18 07:53:53 51°14.37 2°55.03 305.9 11.4 303 -999
2003-06-18 07:53:57 51°14.38 2°55.01 305.9 11.5 300 -999
2003-06-18 07:54:03 51°14.39 2°54.98 307 11.6 301 -999
2003-06-18 07:54:07 51°14.4 2°54.97 308.4 11.8 302 -999
2003-06-18 07:54:13 51°14.41 2°54.94 309.7 11.9 303 -999
2003-06-18 07:54:17 51°14.41 2°54.92 309.7 12 303 -999
2003-06-18 07:54:23 51°14.43 2°54.89 309 12.1 303 -999
2003-06-18 07:54:27 51°14.43 2°54.88 306.7 12.2 301 -999
2003-06-18 07:54:33 51°14.44 2°54.85 305.6 12.3 299 -999
2003-06-18 07:54:37 51°14.45 2°54.83 306.4 12.4 296 -999
2003-06-18 07:54:43 51°14.46 2°54.8 308.3 12.5 297 -999
2003-06-18 07:54:47 51°14.46 2°54.78 309.3 12.5 299 -999
2003-06-18 07:54:53 51°14.47 2°54.75 309 12.5 299 -999
2003-06-18 07:54:57 51°14.48 2°54.73 308.4 12.5 299 -999
2003-06-18 07:55:03 51°14.49 2°54.7 308.1 12.6 298 -999
2003-06-18 07:55:07 51°14.5 2°54.68 308.7 12.6 298 -999
2003-06-18 07:55:13 51°14.51 2°54.65 309.3 12.6 299 -999
2003-06-18 07:55:17 51°14.52 2°54.63 309.8 12.5 299 -999
2003-06-18 07:55:23 51°14.53 2°54.6 309.4 12.5 300 -999
2003-06-18 07:55:27 51°14.53 2°54.58 309.3 12.6 299 -999
2003-06-18 07:55:33 51°14.54 2°54.56 309.1 12.6 300 -999
2003-06-18 07:55:37 51°14.55 2°54.54 309.1 12.6 299 -999
2003-06-18 07:55:43 51°14.56 2°54.51 309.8 12.6 300 -999
2003-06-18 07:55:47 51°14.57 2°54.49 310.9 12.6 300 -999
2003-06-18 07:55:53 51°14.58 2°54.46 312.3 12.5 302 -999
2003-06-18 07:55:57 51°14.59 2°54.44 312.7 12.5 302 -999
2003-06-18 07:56:03 51°14.6 2°54.41 311.5 12.5 303 -999
2003-06-18 07:56:07 51°14.6 2°54.4 309.6 12.5 302 -999
2003-06-18 07:56:13 51°14.61 2°54.37 308.8 12.6 300 -999
2003-06-18 07:56:17 51°14.62 2°54.35 309.1 12.6 300 -999
2003-06-18 07:56:23 51°14.63 2°54.32 309.3 12.7 300 -999
2003-06-18 07:56:27 51°14.64 2°54.3 309.5 12.8 301 -999
2003-06-18 07:56:33 51°14.65 2°54.27 309.2 12.8 301 -999
2003-06-18 07:56:37 51°14.66 2°54.25 308.7 12.9 300 -999
2003-06-18 07:56:43 51°14.67 2°54.22 308.4 13 300 -999
2003-06-18 07:56:47 51°14.68 2°54.2 308 13.1 299 -999
2003-06-18 07:56:53 51°14.69 2°54.17 307.8 13.1 299 -999
2003-06-18 07:56:57 51°14.69 2°54.15 308.1 13.1 298 -999
2003-06-18 07:57:03 51°14.7 2°54.12 308.7 13.2 299 -999
2003-06-18 07:57:07 51°14.71 2°54.1 309.1 13.2 299 -999
2003-06-18 07:57:13 51°14.72 2°54.07 309.2 13.2 300 -999
2003-06-18 07:57:17 51°14.73 2°54.05 309.3 13.2 300 -999
2003-06-18 07:57:23 51°14.74 2°54.02 309.2 13.2 301 -999
2003-06-18 07:57:27 51°14.75 2°54 309.1 13.3 301 -999
2003-06-18 07:57:33 51°14.76 2°53.97 308.8 13.3 301 -999
2003-06-18 07:57:37 51°14.77 2°53.95 308.6 13.3 300 -999
2003-06-18 07:57:43 51°14.78 2°53.92 308.4 13.3 300 -999
2003-06-18 07:57:47 51°14.79 2°53.9 308.6 13.4 300 -999
2003-06-18 07:57:53 51°14.8 2°53.86 308.7 13.5 300 -999
2003-06-18 07:57:57 51°14.8 2°53.84 308.6 13.5 300 -999
2003-06-18 07:58:03 51°14.82 2°53.81 308.5 13.5 300 -999
2003-06-18 07:58:09 51°14.83 2°53.78 308.6 13.6 300 -999
2003-06-18 07:58:13 51°14.83 2°53.76 308.6 13.6 300 -999
2003-06-18 07:58:17 51°14.84 2°53.74 308.4 13.6 300 -999
2003-06-18 07:58:23 51°14.85 2°53.71 308.3 13.7 300 -999
2003-06-18 07:58:27 51°14.86 2°53.69 308.4 13.7 300 -999
2003-06-18 07:58:33 51°14.87 2°53.66 308.9 13.8 300 -999
2003-06-18 07:58:37 51°14.88 2°53.64 309.3 13.8 300 -999
2003-06-18 07:58:43 51°14.89 2°53.6 309.7 13.8 300 -999
2003-06-18 07:58:47 51°14.9 2°53.58 309.7 13.8 301 -999
2003-06-18 07:58:53 51°14.91 2°53.55 309.6 13.9 301 -999
2003-06-18 07:58:57 51°14.92 2°53.53 309.4 13.9 301 -999
2003-06-18 07:59:03 51°14.93 2°53.5 309.1 14 300 -999
2003-06-18 07:59:07 51°14.94 2°53.48 309.1 14 300 -999
2003-06-18 07:59:13 51°14.95 2°53.44 309.1 14 300 -999
2003-06-18 07:59:17 51°14.96 2°53.42 308.8 14 300 -999
2003-06-18 07:59:23 51°14.97 2°53.39 308.8 14 300 -999
2003-06-18 07:59:27 51°14.98 2°53.37 309.2 14.1 300 -999
2003-06-18 07:59:33 51°14.99 2°53.34 309.4 14.1 300 -999
2003-06-18 07:59:37 51°15 2°53.32 309.4 14 300 -999
2003-06-18 07:59:43 51°15.01 2°53.28 309.4 14 300 -999
2003-06-18 07:59:47 51°15.02 2°53.26 309.6 14 300 -999
2003-06-18 07:59:53 51°15.03 2°53.23 309.6 14.1 300 -999
2003-06-18 07:59:57 51°15.04 2°53.21 309.6 14.1 300 -999
2003-06-18 08:00:03 51°15.05 2°53.18 309.6 14.1 300 -999
2003-06-18 08:00:09 51°15.06 2°53.14 309.5 14.1 300 -999
2003-06-18 08:00:13 51°15.07 2°53.12 309.5 14.1 300 -999
2003-06-18 08:00:17 51°15.08 2°53.1 309.5 14.1 300 -999
2003-06-18 08:00:23 51°15.09 2°53.07 309.6 14.1 300 -999
2003-06-18 08:00:27 51°15.1 2°53.05 309.6 14.1 300 -999
2003-06-18 08:00:33 51°15.11 2°53.02 309.6 14.2 300 -999
2003-06-18 08:00:37 51°15.12 2°52.99 309.7 14.2 300 -999
2003-06-18 08:00:43 51°15.13 2°52.96 309.8 14.2 300 -999
2003-06-18 08:00:47 51°15.14 2°52.94 310.1 14.2 300 -999
2003-06-18 08:00:53 51°15.15 2°52.91 310.1 14.2 301 -999
2003-06-18 08:00:57 51°15.16 2°52.89 310.1 14.2 301 -999
2003-06-18 08:01:03 51°15.17 2°52.85 309.8 14.2 301 -999
2003-06-18 08:01:09 51°15.18 2°52.82 309.5 14.3 300 -999
2003-06-18 08:01:13 51°15.19 2°52.8 309.1 14.3 300 -999
2003-06-18 08:01:17 51°15.19 2°52.78 309.1 14.3 299 -999
2003-06-18 08:01:23 51°15.21 2°52.74 309.1 14.3 300 -999
2003-06-18 08:01:27 51°15.21 2°52.72 309.3 14.3 300 -999
2003-06-18 08:01:33 51°15.23 2°52.69 309.6 14.3 300 -999
2003-06-18 08:01:37 51°15.23 2°52.67 309.7 14.3 300 -999
2003-06-18 08:01:43 51°15.25 2°52.63 309.7 14.3 300 -999
2003-06-18 08:01:47 51°15.25 2°52.61 309.5 14.3 300 -999
2003-06-18 08:01:53 51°15.27 2°52.58 309.3 14.3 300 -999
2003-06-18 08:01:57 51°15.27 2°52.56 309.2 14.3 300 -999
2003-06-18 08:02:03 51°15.29 2°52.52 309.4 14.2 299 -999
2003-06-18 08:02:07 51°15.29 2°52.5 309.6 14.3 300 -999
2003-06-18 08:02:13 51°15.3 2°52.47 309.7 14.2 300 -999
2003-06-18 08:02:17 51°15.31 2°52.45 309.6 14.2 300 -999
2003-06-18 08:02:23 51°15.32 2°52.41 309.5 14.3 300 -999
2003-06-18 08:02:27 51°15.33 2°52.39 309.4 14.3 300 -999
2003-06-18 08:02:33 51°15.34 2°52.36 309.4 14.3 300 -999
2003-06-18 08:02:37 51°15.35 2°52.34 309.4 14.3 300 -999
2003-06-18 08:02:43 51°15.36 2°52.3 309.3 14.3 300 -999
2003-06-18 08:02:47 51°15.37 2°52.28 309.2 14.3 300 -999
2003-06-18 08:02:53 51°15.38 2°52.25 309.6 14.3 300 -999
2003-06-18 08:02:57 51°15.39 2°52.22 309.6 14.3 300 -999
2003-06-18 08:03:03 51°15.4 2°52.19 309.7 14.3 300 -999
2003-06-18 08:03:07 51°15.41 2°52.17 309.5 14.2 300 -999
2003-06-18 08:03:13 51°15.42 2°52.14 309.1 14.3 300 -999
2003-06-18 08:03:17 51°15.43 2°52.12 308.7 14.3 299 -999
2003-06-18 08:03:23 51°15.44 2°52.08 308.7 14.3 299 -999
2003-06-18 08:03:27 51°15.45 2°52.06 309 14.3 299 -999
2003-06-18 08:03:33 51°15.46 2°52.03 309.3 14.3 299 -999
2003-06-18 08:03:37 51°15.47 2°52.01 309.4 14.3 300 -999
2003-06-18 08:03:43 51°15.48 2°51.97 309.7 14.3 300 -999
2003-06-18 08:03:47 51°15.49 2°51.95 309.4 14.3 300 -999
2003-06-18 08:03:53 51°15.5 2°51.92 308 14.3 300 -999
2003-06-18 08:03:57 51°15.51 2°51.9 305.5 14.2 298 -999
2003-06-18 08:04:03 51°15.52 2°51.86 303.2 14.3 297 -999
2003-06-18 08:04:07 51°15.53 2°51.84 301.3 14.3 294 -999
2003-06-18 08:04:13 51°15.53 2°51.8 298.7 14.3 292 -999
2003-06-18 08:04:17 51°15.54 2°51.78 296.8 14.3 291 -999
2003-06-18 08:04:23 51°15.55 2°51.75 295.4 14.4 288 -999
2003-06-18 08:04:27 51°15.55 2°51.72 294.6 14.4 287 -999
2003-06-18 08:04:33 51°15.56 2°51.68 293.5 14.4 286 -999
2003-06-18 08:04:37 51°15.56 2°51.66 291.7 14.4 285 -999
2003-06-18 08:04:43 51°15.57 2°51.62 290.2 14.4 284 -999
2003-06-18 08:04:47 51°15.57 2°51.6 288.8 14.5 282 -999
2003-06-18 08:04:53 51°15.58 2°51.56 286.6 14.5 281 -999
2003-06-18 08:04:57 51°15.58 2°51.53 285.2 14.5 279 -999
2003-06-18 08:05:03 51°15.58 2°51.5 283.5 14.5 278 -999
2003-06-18 08:05:07 51°15.59 2°51.47 281.6 14.5 276 -999
2003-06-18 08:05:13 51°15.59 2°51.43 280.1 14.6 275 -999
2003-06-18 08:05:17 51°15.59 2°51.41 278.9 14.6 273 -999
2003-06-18 08:05:23 51°15.59 2°51.37 278.1 14.6 272 -999
2003-06-18 08:05:27 51°15.59 2°51.34 277.5 14.7 271 -999
2003-06-18 08:05:33 51°15.59 2°51.3 277.1 14.7 271 -999
2003-06-18 08:05:37 51°15.59 2°51.28 276.4 14.7 270 -999
2003-06-18 08:05:43 51°15.59 2°51.24 276.1 14.7 270 -999
2003-06-18 08:05:49 51°15.59 2°51.2 275.2 14.7 270 -999
2003-06-18 08:05:53 51°15.59 2°51.17 274.8 14.7 269 -999
2003-06-18 08:05:57 51°15.59 2°51.15 274.3 14.8 268 -999
2003-06-18 08:06:03 51°15.59 2°51.11 274.1 14.8 268 -999
2003-06-18 08:06:07 51°15.59 2°51.08 273.8 14.8 268 -999
2003-06-18 08:06:13 51°15.59 2°51.04 273.7 14.8 268 -999
2003-06-18 08:06:17 51°15.59 2°51.02 274 14.7 267 -999
2003-06-18 08:06:23 51°15.58 2°50.98 274.4 14.8 268 -999
2003-06-18 08:06:27 51°15.58 2°50.95 274.5 14.8 268 -999
2003-06-18 08:06:33 51°15.58 2°50.91 274.4 14.8 268 -999
2003-06-18 08:06:37 51°15.58 2°50.89 274.6 14.8 268 -999
2003-06-18 08:06:43 51°15.58 2°50.85 274.7 14.8 269 -999
2003-06-18 08:06:47 51°15.58 2°50.82 274.7 14.8 268 -999
2003-06-18 08:06:53 51°15.58 2°50.78 274.5 14.8 269 -999
2003-06-18 08:06:57 51°15.58 2°50.76 274.2 14.8 268 -999
2003-06-18 08:07:03 51°15.58 2°50.72 274.5 14.8 268 -999
2003-06-18 08:07:07 51°15.58 2°50.69 274.8 14.8 269 -999
2003-06-18 08:07:13 51°15.58 2°50.65 275 14.8 269 -999
2003-06-18 08:07:17 51°15.58 2°50.63 275 14.8 269 -999
2003-06-18 08:07:23 51°15.58 2°50.59 274.9 14.8 269 -999
2003-06-18 08:07:27 51°15.58 2°50.56 274.7 14.8 269 -999
2003-06-18 08:07:33 51°15.58 2°50.52 275 14.8 268 -999
2003-06-18 08:07:37 51°15.58 2°50.5 272.9 14.8 268 -999
2003-06-18 08:07:43 51°15.58 2°50.46 271.2 14.8 267 -999
2003-06-18 08:07:47 51°15.57 2°50.43 270 14.8 265 -999
2003-06-18 08:07:53 51°15.57 2°50.39 269.2 14.8 264 -999
2003-06-18 08:07:57 51°15.57 2°50.37 268.4 14.8 263 -999
2003-06-18 08:08:03 51°15.57 2°50.33 268.2 14.8 263 -999
2003-06-18 08:08:07 51°15.56 2°50.3 268.1 14.8 263 -999
2003-06-18 08:08:13 51°15.56 2°50.26 267.9 14.8 263 -999
2003-06-18 08:08:17 51°15.56 2°50.24 266.9 14.8 262 -999
2003-06-18 08:08:23 51°15.56 2°50.2 265.3 14.8 262 -999
2003-06-18 08:08:27 51°15.55 2°50.17 264.2 14.8 259 -999
2003-06-18 08:08:33 51°15.55 2°50.13 263.4 14.7 260 -999
2003-06-18 08:08:37 51°15.54 2°50.11 262.8 14.8 258 -999
2003-06-18 08:08:43 51°15.54 2°50.07 262.5 14.7 258 -999
2003-06-18 08:08:47 51°15.54 2°50.04 262.7 14.8 257 -999
2003-06-18 08:08:53 51°15.53 2°50 262.6 14.9 258 -999
2003-06-18 08:08:57 51°15.53 2°49.98 262.7 14.7 258 -999
2003-06-18 08:09:03 51°15.52 2°49.94 263.1 14.8 258 -999
2003-06-18 08:09:07 51°15.52 2°49.91 263.2 14.8 258 -999
2003-06-18 08:09:13 51°15.51 2°49.88 262.7 14.8 258 -999
2003-06-18 08:09:17 51°15.51 2°49.85 262.6 14.8 258 -999
2003-06-18 08:09:23 51°15.5 2°49.81 262.7 14.8 257 -999
2003-06-18 08:09:27 51°15.5 2°49.79 262.8 14.8 258 -999
2003-06-18 08:09:33 51°15.5 2°49.75 262 14.7 257 -999
2003-06-18 08:09:37 51°15.49 2°49.72 259.9 14.7 257 -999
2003-06-18 08:09:43 51°15.49 2°49.69 259.7 14.7 255 -999
2003-06-18 08:09:47 51°15.48 2°49.66 259 14.8 255 -999
2003-06-18 08:09:53 51°15.48 2°49.62 258.3 14.8 254 -999
2003-06-18 08:09:57 51°15.47 2°49.6 258.2 14.8 254 -999
2003-06-18 08:10:03 51°15.46 2°49.56 258 14.8 254 -999
2003-06-18 08:10:07 51°15.46 2°49.53 257.6 14.7 253 -999
2003-06-18 08:10:13 51°15.45 2°49.5 258.4 14.8 253 -999
2003-06-18 08:10:17 51°15.45 2°49.47 258.3 14.8 254 -999
2003-06-18 08:10:23 51°15.44 2°49.43 258.2 14.8 253 -999
2003-06-18 08:10:29 51°15.43 2°49.4 258.3 14.7 254 -999
2003-06-18 08:10:33 51°15.43 2°49.37 258.3 14.7 254 -999
2003-06-18 08:10:37 51°15.42 2°49.34 258.3 14.7 254 -999
2003-06-18 08:10:43 51°15.42 2°49.31 258.3 14.7 254 -999
2003-06-18 08:10:47 51°15.41 2°49.28 258.2 14.7 254 -999
2003-06-18 08:10:53 51°15.41 2°49.24 258.2 14.7 254 -999
2003-06-18 08:10:57 51°15.4 2°49.22 258.2 14.7 254 -999
2003-06-18 08:11:03 51°15.4 2°49.18 258.4 14.7 253 -999
2003-06-18 08:11:07 51°15.39 2°49.16 258.8 14.7 254 -999
2003-06-18 08:11:13 51°15.38 2°49.12 258.8 14.7 254 -999
2003-06-18 08:11:17 51°15.38 2°49.1 258.8 14.7 254 -999
2003-06-18 08:11:23 51°15.37 2°49.06 258.6 14.7 254 -999
2003-06-18 08:11:29 51°15.37 2°49.02 258.3 14.7 254 -999
2003-06-18 08:11:33 51°15.36 2°49 258.5 14.7 254 -999
2003-06-18 08:11:37 51°15.36 2°48.97 258.7 14.7 254 -999
2003-06-18 08:11:43 51°15.35 2°48.93 259 14.7 254 -999
2003-06-18 08:11:47 51°15.35 2°48.91 258.9 14.7 255 -999
2003-06-18 08:11:53 51°15.34 2°48.87 258.9 14.7 254 -999
2003-06-18 08:11:57 51°15.34 2°48.84 258.8 14.7 255 -999
2003-06-18 08:12:03 51°15.33 2°48.81 258.9 14.7 254 -999
2003-06-18 08:12:07 51°15.32 2°48.78 258.9 14.7 255 -999
2003-06-18 08:12:13 51°15.32 2°48.74 259.1 14.8 254 -999
2003-06-18 08:12:17 51°15.31 2°48.72 259.2 14.7 255 -999
2003-06-18 08:12:23 51°15.31 2°48.68 258.7 14.7 254 -999
2003-06-18 08:12:27 51°15.3 2°48.66 258.4 14.7 254 -999
2003-06-18 08:12:33 51°15.3 2°48.62 258.8 14.7 253 -999
2003-06-18 08:12:37 51°15.29 2°48.59 258.6 14.7 254 -999
2003-06-18 08:12:43 51°15.28 2°48.56 259.1 14.7 254 -999
2003-06-18 08:12:47 51°15.28 2°48.53 259.1 14.7 255 -999
2003-06-18 08:12:53 51°15.27 2°48.49 259.1 14.7 254 -999
2003-06-18 08:12:57 51°15.27 2°48.47 259.1 14.7 255 -999
2003-06-18 08:13:03 51°15.26 2°48.43 259.1 14.7 254 -999
2003-06-18 08:13:09 51°15.26 2°48.39 258.7 14.7 254 -999
2003-06-18 08:13:13 51°15.25 2°48.37 258.6 14.7 254 -999
2003-06-18 08:13:17 51°15.25 2°48.34 259 14.7 254 -999
2003-06-18 08:13:23 51°15.24 2°48.3 259 14.7 255 -999
2003-06-18 08:13:29 51°15.23 2°48.27 259.1 14.7 254 -999
2003-06-18 08:13:33 51°15.23 2°48.24 259.3 14.8 254 -999
2003-06-18 08:13:37 51°15.23 2°48.22 259.4 14.7 255 -999
2003-06-18 08:13:43 51°15.22 2°48.18 259.4 14.7 255 -999
2003-06-18 08:13:47 51°15.21 2°48.15 259.1 14.7 254 -999
2003-06-18 08:13:53 51°15.21 2°48.12 258.6 14.7 255 -999
2003-06-18 08:13:57 51°15.2 2°48.09 258.7 14.7 254 -999
2003-06-18 08:14:03 51°15.2 2°48.05 258.9 14.7 255 -999
2003-06-18 08:14:09 51°15.19 2°48.02 259.1 14.6 254 -999
2003-06-18 08:14:13 51°15.19 2°47.99 258.9 14.7 255 -999
2003-06-18 08:14:17 51°15.18 2°47.97 258.4 14.6 254 -999
2003-06-18 08:14:23 51°15.18 2°47.93 258.1 14.6 254 -999
2003-06-18 08:14:27 51°15.17 2°47.9 258.3 14.7 254 -999
2003-06-18 08:14:33 51°15.16 2°47.87 258.5 14.7 254 -999
2003-06-18 08:14:37 51°15.16 2°47.84 258.9 14.7 254 -999
2003-06-18 08:14:43 51°15.15 2°47.81 259.3 14.6 255 -999
2003-06-18 08:14:47 51°15.15 2°47.78 259.7 14.7 255 -999
2003-06-18 08:14:53 51°15.14 2°47.74 259.6 14.7 256 -999
2003-06-18 08:14:57 51°15.14 2°47.72 259.5 14.6 255 9.1
2003-06-18 08:15:01 51°15.13 2°47.69 259.3 14.6 255 9
2003-06-18 08:15:05 51°15.13 2°47.67 259.2 14.6 255 9
2003-06-18 08:15:11 51°15.12 2°47.63 259.1 14.6 255 8.9
2003-06-18 08:15:15 51°15.12 2°47.61 258.9 14.6 254 8.8
2003-06-18 08:15:19 51°15.11 2°47.58 258.2 14.6 254 8.7
2003-06-18 08:15:23 51°15.11 2°47.56 258.5 14.5 254 8.8
2003-06-18 08:15:29 51°15.1 2°47.52 258.3 14.5 255 8.6
2003-06-18 08:15:33 51°15.1 2°47.49 259.1 14.5 255 8.5
2003-06-18 08:15:37 51°15.1 2°47.47 259.1 14.6 255 8.6
2003-06-18 08:15:43 51°15.09 2°47.43 259.3 14.6 256 8.5
2003-06-18 08:15:49 51°15.08 2°47.4 259.6 14.5 256 8.4
2003-06-18 08:15:53 51°15.08 2°47.37 259.7 14.5 256 8.4
2003-06-18 08:15:57 51°15.07 2°47.35 258.8 14.5 254 8.3
2003-06-18 08:16:03 51°15.07 2°47.31 257.9 14.4 254 8.4
2003-06-18 08:16:09 51°15.06 2°47.27 257.1 14.5 253 8.3
2003-06-18 08:16:13 51°15.06 2°47.25 256.8 14.5 253 8.3
2003-06-18 08:16:17 51°15.05 2°47.22 256.5 14.5 253 8.2
2003-06-18 08:16:23 51°15.05 2°47.19 256.8 14.4 253 8.3
2003-06-18 08:16:29 51°15.04 2°47.15 257.2 14.5 254 8.2
2003-06-18 08:16:33 51°15.03 2°47.13 257.5 14.5 254 8.3
2003-06-18 08:16:37 51°15.03 2°47.1 258.1 14.4 254 8.3
2003-06-18 08:16:43 51°15.02 2°47.06 258.4 14.5 254 8.3
2003-06-18 08:16:49 51°15.02 2°47.03 259.1 14.4 256 8.2
2003-06-18 08:16:53 51°15.01 2°47 258.7 14.4 255 8.1
2003-06-18 08:16:57 51°15.01 2°46.98 258.6 14.5 255 8.1
2003-06-18 08:17:03 51°15 2°46.94 258.9 14.4 255 8.1
2003-06-18 08:17:09 51°15 2°46.9 258.3 14.5 254 8.1
2003-06-18 08:17:13 51°14.99 2°46.88 258.4 14.5 255 8.1
2003-06-18 08:17:17 51°14.99 2°46.85 257.6 14.4 254 8.1
2003-06-18 08:17:23 51°14.98 2°46.82 256.6 14.4 253 8.1
2003-06-18 08:17:29 51°14.97 2°46.78 256 14.4 252 8.1
2003-06-18 08:17:33 51°14.97 2°46.76 255.3 14.4 251 8
2003-06-18 08:17:37 51°14.96 2°46.73 253.7 14.4 250 8
2003-06-18 08:17:43 51°14.95 2°46.7 253.1 14.4 250 8.1
2003-06-18 08:17:49 51°14.95 2°46.66 252.4 14.4 249 8.1
2003-06-18 08:17:53 51°14.94 2°46.64 251.9 14.4 249 8.1
2003-06-18 08:17:57 51°14.93 2°46.61 252.1 14.4 249 8.1
2003-06-18 08:18:03 51°14.93 2°46.58 252.8 14.4 250 7.9
2003-06-18 08:18:09 51°14.92 2°46.54 253.8 14.4 252 8
2003-06-18 08:18:13 51°14.91 2°46.52 254.9 14.4 252 8
2003-06-18 08:18:17 51°14.91 2°46.49 255.3 14.4 252 8.1
2003-06-18 08:18:23 51°14.9 2°46.46 256.1 14.4 253 8.1
2003-06-18 08:18:29 51°14.89 2°46.42 256.6 14.4 253 8.1
2003-06-18 08:18:33 51°14.89 2°46.4 257.6 14.4 254 8.2
2003-06-18 08:18:37 51°14.88 2°46.37 257.4 14.4 253 8.1
2003-06-18 08:18:43 51°14.88 2°46.33 257.4 14.5 254 8.1
2003-06-18 08:18:49 51°14.87 2°46.3 257 14.4 253 8.1
2003-06-18 08:18:53 51°14.87 2°46.27 256.4 14.4 253 8.2
2003-06-18 08:18:57 51°14.86 2°46.25 255.5 14.5 252 8.2
2003-06-18 08:19:03 51°14.85 2°46.21 255.1 14.5 252 8.2
2003-06-18 08:19:09 51°14.85 2°46.17 254.2 14.5 251 8.2
2003-06-18 08:19:13 51°14.84 2°46.15 254 14.5 251 8.1
2003-06-18 08:19:17 51°14.84 2°46.13 253.5 14.5 250 8.2
2003-06-18 08:19:23 51°14.83 2°46.09 253.8 14.5 251 8.3
2003-06-18 08:19:29 51°14.82 2°46.05 254.8 14.5 253 8.3
2003-06-18 08:19:33 51°14.82 2°46.03 256.6 14.5 254 8.3
2003-06-18 08:19:37 51°14.81 2°46 257.1 14.5 254 8.4
2003-06-18 08:19:43 51°14.8 2°45.97 257.7 14.5 255 8.5
2003-06-18 08:19:49 51°14.8 2°45.93 258.3 14.6 254 8.5
2003-06-18 08:19:53 51°14.79 2°45.91 258.2 14.6 255 8.7
2003-06-18 08:19:57 51°14.79 2°45.88 257.9 14.6 254 8.7
2003-06-18 08:20:03 51°14.78 2°45.84 257.6 14.6 254 8.7
2003-06-18 08:20:09 51°14.78 2°45.81 256.7 14.7 253 8.8
2003-06-18 08:20:13 51°14.77 2°45.78 256.6 14.7 253 8.9
2003-06-18 08:20:17 51°14.77 2°45.76 255.8 14.7 252 9
2003-06-18 08:20:23 51°14.76 2°45.72 255.2 14.7 252 9.1
2003-06-18 08:20:29 51°14.75 2°45.68 255 14.8 251 9.2
2003-06-18 08:20:33 51°14.74 2°45.66 254.6 14.7 251 9.3
2003-06-18 08:20:37 51°14.74 2°45.63 254.9 14.7 252 9.4
2003-06-18 08:20:43 51°14.73 2°45.6 255.5 14.7 253 9.4
2003-06-18 08:20:49 51°14.72 2°45.56 256 14.7 252 9.5
2003-06-18 08:20:53 51°14.72 2°45.53 256.4 14.8 253 9.6
2003-06-18 08:20:57 51°14.71 2°45.51 256.9 14.7 253 9.8
2003-06-18 08:21:03 51°14.71 2°45.47 256.9 14.7 253 9.8
2003-06-18 08:21:05 51°14.71 2°45.46 256.8 14.7 253 9.9
2003-06-18 08:21:13 51°14.7 2°45.41 256.4 14.8 252 10
2003-06-18 08:21:17 51°14.69 2°45.38 256.2 14.8 252 10
2003-06-18 08:21:23 51°14.68 2°45.35 255.6 14.7 252 10.1
2003-06-18 08:21:29 51°14.68 2°45.31 255.2 14.7 251 10.1
2003-06-18 08:21:33 51°14.67 2°45.29 255.4 14.7 252 10.3
2003-06-18 08:21:37 51°14.67 2°45.26 255.4 14.7 252 10.4
2003-06-18 08:21:43 51°14.66 2°45.22 255.5 14.8 252 10.4
2003-06-18 08:21:49 51°14.65 2°45.19 255.9 14.7 252 10.5
2003-06-18 08:21:53 51°14.64 2°45.16 255.8 14.7 252 10.6
2003-06-18 08:21:57 51°14.64 2°45.14 255.9 14.7 252 10.6
2003-06-18 08:22:03 51°14.63 2°45.1 256.2 14.7 253 10.7
2003-06-18 08:22:09 51°14.62 2°45.06 255.7 14.7 252 10.8
2003-06-18 08:22:13 51°14.62 2°45.04 255.7 14.7 252 10.8
2003-06-18 08:22:17 51°14.62 2°45.01 255.6 14.7 252 11
2003-06-18 08:22:23 51°14.61 2°44.98 255.9 14.7 252 11.1
2003-06-18 08:22:29 51°14.6 2°44.94 255.6 14.7 252 11.2
2003-06-18 08:22:33 51°14.59 2°44.92 255.4 14.7 251 11.2
2003-06-18 08:22:37 51°14.59 2°44.89 255.6 14.7 252 11.4
2003-06-18 08:22:43 51°14.58 2°44.85 255.7 14.7 252 11.5
2003-06-18 08:22:49 51°14.57 2°44.82 255.9 14.7 252 11.6
2003-06-18 08:22:53 51°14.57 2°44.79 256.1 14.7 252 11.7
2003-06-18 08:22:57 51°14.56 2°44.77 256.1 14.7 252 11.8
2003-06-18 08:23:03 51°14.56 2°44.73 255.6 14.7 252 11.9
2003-06-18 08:23:09 51°14.55 2°44.69 255.7 14.7 253 12
2003-06-18 08:23:13 51°14.54 2°44.67 256.1 14.7 252 12.1
2003-06-18 08:23:17 51°14.54 2°44.64 256.2 14.7 252 12.3
2003-06-18 08:23:23 51°14.53 2°44.61 256.1 14.7 252 12.4
2003-06-18 08:23:29 51°14.52 2°44.57 255.6 14.7 251 12.4
2003-06-18 08:23:33 51°14.52 2°44.54 256 14.7 252 12.5
2003-06-18 08:23:37 51°14.51 2°44.52 255.8 14.7 252 12.6
2003-06-18 08:23:43 51°14.51 2°44.48 255.7 14.7 252 12.7
2003-06-18 08:23:49 51°14.5 2°44.45 256.1 14.7 252 12.6
2003-06-18 08:23:53 51°14.49 2°44.42 256.1 14.7 252 12.8
2003-06-18 08:23:57 51°14.49 2°44.4 256 14.7 252 12.8
2003-06-18 08:24:03 51°14.48 2°44.36 256 14.6 252 12.9
2003-06-18 08:24:09 51°14.47 2°44.32 255.8 14.7 252 12.9
2003-06-18 08:24:13 51°14.47 2°44.3 257.1 14.6 254 13
2003-06-18 08:24:17 51°14.46 2°44.27 257.8 14.7 254 13
2003-06-18 08:24:23 51°14.46 2°44.24 258.5 14.7 254 13.1
2003-06-18 08:24:29 51°14.45 2°44.2 259.1 14.6 255 13.2
2003-06-18 08:24:33 51°14.45 2°44.17 259.1 14.7 255 13.2
2003-06-18 08:24:37 51°14.44 2°44.15 259.5 14.7 255 13.3
2003-06-18 08:24:43 51°14.44 2°44.11 259.5 14.6 255 13.4
2003-06-18 08:24:49 51°14.43 2°44.07 259.2 14.7 255 13.4
2003-06-18 08:24:53 51°14.43 2°44.05 259.4 14.7 255 13.5
2003-06-18 08:24:57 51°14.42 2°44.02 259.7 14.6 256 13.6
2003-06-18 08:25:03 51°14.42 2°43.99 259.5 14.7 256 13.7
2003-06-18 08:25:05 51°14.41 2°43.97 260.2 14.7 256 13.8
2003-06-18 08:25:13 51°14.41 2°43.92 261.3 14.7 257 13.8
2003-06-18 08:25:17 51°14.4 2°43.9 262.2 14.7 258 13.8
2003-06-18 08:25:23 51°14.4 2°43.86 262.7 14.7 258 14.1
2003-06-18 08:25:29 51°14.39 2°43.82 263.5 14.7 259 14.2
2003-06-18 08:25:33 51°14.39 2°43.8 263.7 14.7 259 14.2
2003-06-18 08:25:37 51°14.39 2°43.77 263.7 14.7 259 14.3
2003-06-18 08:25:43 51°14.38 2°43.73 263.9 14.7 259 14.4
2003-06-18 08:25:49 51°14.38 2°43.69 263.2 14.7 258 14.5
2003-06-18 08:25:53 51°14.37 2°43.67 263.1 14.7 259 14.4
2003-06-18 08:25:57 51°14.37 2°43.64 263.2 14.7 258 14.3
2003-06-18 08:26:03 51°14.37 2°43.6 263.4 14.7 259 14.6
2003-06-18 08:26:09 51°14.36 2°43.57 263.9 14.7 259 14.6
2003-06-18 08:26:13 51°14.36 2°43.54 263.7 14.7 259 14.7
2003-06-18 08:26:17 51°14.35 2°43.52 263.4 14.7 258 14.9
2003-06-18 08:26:23 51°14.35 2°43.48 263.4 14.7 259 15
2003-06-18 08:26:29 51°14.35 2°43.44 263.7 14.7 259 15
2003-06-18 08:26:33 51°14.34 2°43.41 263.3 14.7 258 15.1
2003-06-18 08:26:37 51°14.34 2°43.39 263.1 14.7 258 15.1
2003-06-18 08:26:43 51°14.33 2°43.35 263.5 14.7 259 15.2
2003-06-18 08:26:49 51°14.33 2°43.31 263.5 14.3 258 15.1
2003-06-18 08:26:53 51°14.33 2°43.29 263.6 13.9 259 15.1
2003-06-18 08:26:57 51°14.32 2°43.27 263.4 13.5 258 15.1
2003-06-18 08:27:03 51°14.32 2°43.23 263.5 12.8 259 15.1
2003-06-18 08:27:09 51°14.31 2°43.2 263.6 12.4 258 15.2
2003-06-18 08:27:13 51°14.31 2°43.18 264 12.1 259 15.2
2003-06-18 08:27:17 51°14.31 2°43.16 264 11.9 259 15.3
2003-06-18 08:27:23 51°14.31 2°43.13 264.1 11.7 258 15.2
2003-06-18 08:27:25 51°14.3 2°43.12 264.1 11.5 258 15.3
2003-06-18 08:27:33 51°14.3 2°43.08 263.9 11.4 258 15.3
2003-06-18 08:27:37 51°14.3 2°43.06 263.6 11.2 258 15.3
2003-06-18 08:27:43 51°14.29 2°43.03 263.5 11.1 258 15.3
2003-06-18 08:27:49 51°14.29 2°43 263.3 10.8 257 15.3
2003-06-18 08:27:53 51°14.29 2°42.98 263.1 10.5 258 15.3
2003-06-18 08:27:57 51°14.28 2°42.97 263.1 10.3 257 15.3
2003-06-18 08:28:03 51°14.28 2°42.94 263.4 10 258 15.5
2003-06-18 08:28:09 51°14.28 2°42.91 263.7 9.8 258 15.4
2003-06-18 08:28:13 51°14.27 2°42.9 264 9.6 258 15.4
2003-06-18 08:28:17 51°14.27 2°42.88 264 9.3 257 15.4
2003-06-18 08:28:23 51°14.27 2°42.86 263.8 9 257 15.4
2003-06-18 08:28:29 51°14.27 2°42.84 263.8 8.6 258 15.4
2003-06-18 08:28:33 51°14.26 2°42.82 263.5 8.5 256 15.4
2003-06-18 08:28:37 51°14.26 2°42.81 263.6 8.3 258 15.5
2003-06-18 08:28:43 51°14.26 2°42.79 263.5 8.2 256 15.6
2003-06-18 08:28:49 51°14.26 2°42.77 263.6 8 257 15.6
2003-06-18 08:28:53 51°14.25 2°42.75 263.5 7.8 257 15.6
2003-06-18 08:28:57 51°14.25 2°42.74 263 7.7 256 15.7
2003-06-18 08:29:03 51°14.25 2°42.72 261.9 7.6 255 15.7
2003-06-18 08:29:09 51°14.25 2°42.7 260.6 7.5 254 15.7
2003-06-18 08:29:13 51°14.24 2°42.69 260 7.5 254 15.6
2003-06-18 08:29:17 51°14.24 2°42.68 259.9 7.4 254 15.7
2003-06-18 08:29:23 51°14.24 2°42.66 259.9 7.3 254 15.7
2003-06-18 08:29:29 51°14.23 2°42.64 260.3 7.2 254 15.7
2003-06-18 08:29:33 51°14.23 2°42.63 260.4 7.2 253 15.7
2003-06-18 08:29:37 51°14.23 2°42.61 260.5 7.1 254 15.7
2003-06-18 08:29:43 51°14.23 2°42.6 260.6 7 253 15.8
2003-06-18 08:29:49 51°14.22 2°42.58 260.9 6.9 253 15.8
2003-06-18 08:29:53 51°14.22 2°42.57 260.9 6.9 253 15.7
2003-06-18 08:29:57 51°14.22 2°42.55 261 6.8 254 15.7
2003-06-18 08:30:03 51°14.22 2°42.54 261.3 6.8 253 15.7
2003-06-18 08:30:09 51°14.21 2°42.52 261.7 6.8 254 15.7
2003-06-18 08:30:13 51°14.21 2°42.51 262.4 6.8 255 15.7
2003-06-18 08:30:17 51°14.21 2°42.5 263.4 6.7 255 15.8
2003-06-18 08:30:23 51°14.21 2°42.48 264.4 6.7 256 15.8
2003-06-18 08:30:29 51°14.2 2°42.46 265.2 6.6 257 15.8
2003-06-18 08:30:33 51°14.2 2°42.45 265.4 6.6 256 15.8
2003-06-18 08:30:37 51°14.2 2°42.44 264.8 6.6 256 15.8
2003-06-18 08:30:43 51°14.2 2°42.42 263.8 6.6 255 15.8
2003-06-18 08:30:49 51°14.19 2°42.41 262.7 6.6 254 15.8
2003-06-18 08:30:53 51°14.19 2°42.39 261.8 6.6 254 15.8
2003-06-18 08:30:57 51°14.19 2°42.38 260.5 6.6 253 15.8
2003-06-18 08:31:03 51°14.19 2°42.37 259.2 6.6 252 15.9
2003-06-18 08:31:09 51°14.18 2°42.35 258.7 6.6 251 15.9
2003-06-18 08:31:13 51°14.18 2°42.34 258.2 6.5 251 15.9
2003-06-18 08:31:17 51°14.18 2°42.33 258.1 6.6 251 15.9
2003-06-18 08:31:23 51°14.18 2°42.31 258.1 6.5 251 15.8
2003-06-18 08:31:29 51°14.17 2°42.29 258.3 6.6 252 15.8
2003-06-18 08:31:33 51°14.17 2°42.28 258.7 6.5 252 15.9
2003-06-18 08:31:37 51°14.17 2°42.27 259.5 6.5 252 15.8
2003-06-18 08:31:43 51°14.17 2°42.26 260.3 6.5 253 15.8
2003-06-18 08:31:49 51°14.16 2°42.24 261.2 6.5 253 15.9
2003-06-18 08:31:53 51°14.16 2°42.23 262.1 6.5 254 15.9
2003-06-18 08:31:57 51°14.16 2°42.22 263.1 6.5 254 16
2003-06-18 08:32:03 51°14.16 2°42.2 264.2 6.4 256 15.9
2003-06-18 08:32:09 51°14.15 2°42.19 265.6 6.4 258 15.9
2003-06-18 08:32:13 51°14.15 2°42.17 266.7 6.4 258 16
2003-06-18 08:32:17 51°14.15 2°42.16 268.1 6.4 259 16
2003-06-18 08:32:23 51°14.15 2°42.15 268.9 6.4 260 15.9
2003-06-18 08:32:29 51°14.15 2°42.13 269.2 6.4 260 15.9
2003-06-18 08:32:33 51°14.14 2°42.12 269.4 6.4 260 16
2003-06-18 08:32:37 51°14.14 2°42.11 269.4 6.4 260 16
2003-06-18 08:32:43 51°14.14 2°42.09 269.4 6.4 260 16
2003-06-18 08:32:49 51°14.14 2°42.07 269.2 6.4 260 16.1
2003-06-18 08:32:53 51°14.14 2°42.06 269 6.4 260 16.1
2003-06-18 08:32:57 51°14.14 2°42.05 268.6 6.4 260 16.1
2003-06-18 08:33:03 51°14.14 2°42.04 268.4 6.4 259 16
2003-06-18 08:33:09 51°14.13 2°42.02 267.9 6.4 259 16.1
2003-06-18 08:33:13 51°14.13 2°42.01 267.7 6.5 258 16.1
2003-06-18 08:33:17 51°14.13 2°42 267.1 6.5 259 16.1
2003-06-18 08:33:23 51°14.13 2°41.98 266.3 6.4 258 16.1
2003-06-18 08:33:29 51°14.13 2°41.96 265.6 6.5 257 16.1
2003-06-18 08:33:33 51°14.12 2°41.95 264.8 6.6 256 16.1
2003-06-18 08:33:37 51°14.12 2°41.94 263.9 6.9 256 16.1
2003-06-18 08:33:43 51°14.12 2°41.92 263 7.1 256 16.2
2003-06-18 08:33:49 51°14.12 2°41.9 262.1 7.4 255 16.2
2003-06-18 08:33:53 51°14.11 2°41.89 261.2 7.5 254 16.2
2003-06-18 08:33:57 51°14.11 2°41.88 260.5 7.6 254 16.2
2003-06-18 08:34:03 51°14.11 2°41.86 259.5 7.9 253 16.1
2003-06-18 08:34:09 51°14.1 2°41.84 258.6 8 252 16.1
2003-06-18 08:34:13 51°14.1 2°41.82 257.5 8.1 251 16.2
2003-06-18 08:34:17 51°14.1 2°41.81 256.4 8.2 251 16.2
2003-06-18 08:34:23 51°14.09 2°41.79 255.2 8.3 249 16.2
2003-06-18 08:34:29 51°14.09 2°41.77 254.1 8.4 249 16.1
2003-06-18 08:34:33 51°14.08 2°41.75 253.1 8.5 248 16.1
2003-06-18 08:34:37 51°14.08 2°41.74 252.2 8.6 248 16
2003-06-18 08:34:43 51°14.08 2°41.72 251.6 8.6 247 16.1
2003-06-18 08:34:49 51°14.07 2°41.7 250.8 8.6 246 16.1
2003-06-18 08:34:53 51°14.07 2°41.68 250.2 8.6 246 16.1
2003-06-18 08:34:57 51°14.06 2°41.67 250 8.7 246 16.1
2003-06-18 08:35:03 51°14.06 2°41.65 250.2 8.8 246 16
2003-06-18 08:35:09 51°14.05 2°41.63 251.5 8.8 247 16.1
2003-06-18 08:35:13 51°14.05 2°41.61 253.3 8.8 249 16
2003-06-18 08:35:17 51°14.04 2°41.6 255.4 8.8 250 16.1
2003-06-18 08:35:23 51°14.04 2°41.58 258.1 8.8 253 16.1
2003-06-18 08:35:29 51°14.04 2°41.55 261.4 8.7 257 16.1
2003-06-18 08:35:33 51°14.03 2°41.54 265 8.7 259 16.1
2003-06-18 08:35:37 51°14.03 2°41.52 269.2 8.7 262 16.1
2003-06-18 08:35:43 51°14.03 2°41.5 271.8 8.6 264 16.1
2003-06-18 08:35:49 51°14.03 2°41.48 273.2 8.7 265 16.1
2003-06-18 08:35:53 51°14.03 2°41.46 273.6 8.6 266 16.1
2003-06-18 08:35:57 51°14.03 2°41.45 273.6 8.7 266 16.1
2003-06-18 08:36:03 51°14.03 2°41.42 273.2 8.7 266 16.1
2003-06-18 08:36:05 51°14.03 2°41.42 272.5 8.8 265 16
2003-06-18 08:36:13 51°14.02 2°41.38 271.6 8.8 265 16
2003-06-18 08:36:17 51°14.02 2°41.37 270.7 8.6 264 15.7
2003-06-18 08:36:23 51°14.02 2°41.35 270.4 8.4 263 15.4
2003-06-18 08:36:29 51°14.02 2°41.33 270.6 8.1 264 15.5
2003-06-18 08:36:33 51°14.02 2°41.31 270.9 8 264 15.3
2003-06-18 08:36:37 51°14.02 2°41.3 272 7.8 265 15.4
2003-06-18 08:36:43 51°14.02 2°41.28 274.2 7.6 266 15.2
2003-06-18 08:36:49 51°14.02 2°41.26 278.3 7.3 272 15.3
2003-06-18 08:36:53 51°14.02 2°41.25 282.9 7.1 273 15.3
2003-06-18 08:36:57 51°14.02 2°41.23 288.2 6.8 277 15.2
2003-06-18 08:37:03 51°14.02 2°41.22 293.3 6.5 282 15.1
2003-06-18 08:37:09 51°14.02 2°41.2 299.4 6.1 288 15.1
2003-06-18 08:37:13 51°14.03 2°41.19 304.1 5.9 291 15
2003-06-18 08:37:17 51°14.03 2°41.18 311.1 5.7 296 15
2003-06-18 08:37:23 51°14.03 2°41.17 317 5.3 301 14.9
2003-06-18 08:37:29 51°14.04 2°41.16 322.9 5 307 15
2003-06-18 08:37:33 51°14.04 2°41.15 329.1 4.8 311 14.9
2003-06-18 08:37:37 51°14.05 2°41.15 335.3 4.6 316 14.8
2003-06-18 08:37:43 51°14.05 2°41.14 341.4 4.3 322 14.8
2003-06-18 08:37:49 51°14.06 2°41.14 347.7 4 329 14.7
2003-06-18 08:37:53 51°14.06 2°41.13 353.9 3.9 333 14.6
2003-06-18 08:37:57 51°14.07 2°41.13   3.7 338 14.7
2003-06-18 08:38:03 51°14.07 2°41.13 6.2 3.5 345 14.6
2003-06-18 08:38:09 51°14.08 2°41.13 11.8 3.2 353 14.5
2003-06-18 08:38:13 51°14.08 2°41.13 18.1 3.1 358 14.5
2003-06-18 08:38:17 51°14.08 2°41.13 24.2 3 3 14.4
2003-06-18 08:38:23 51°14.09 2°41.13 28.6 2.9 10 14.4
2003-06-18 08:38:29 51°14.09 2°41.13 35.8 2.7 19 14.4
2003-06-18 08:38:33 51°14.1 2°41.13 40.2 2.7 24 14.4
2003-06-18 08:38:37 51°14.1 2°41.14 46.6 2.6 30 14.4
2003-06-18 08:38:43 51°14.1 2°41.14 52.3 2.5 38 14.3
2003-06-18 08:38:49 51°14.1 2°41.15 57.4 2.5 48 14.3
2003-06-18 08:38:53 51°14.11 2°41.15 60.4 2.6 49 14.2
2003-06-18 08:38:57 51°14.11 2°41.15 62.3 2.4 53 14.2
2003-06-18 08:39:03 51°14.11 2°41.16 63.8 2 54 14.3
2003-06-18 08:39:09 51°14.11 2°41.16 65.1 1.5 55 14.2
2003-06-18 08:39:13 51°14.11 2°41.16 66.5 1.2 56 14.2
2003-06-18 08:39:17 51°14.11 2°41.16 68.8 1.1 60 14.1
2003-06-18 08:39:23 51°14.11 2°41.17 71.3 1 69 14.2
2003-06-18 08:39:29 51°14.11 2°41.17 73.6 1 71 14.3
2003-06-18 08:39:33 51°14.11 2°41.17 75.2 0.9 75 14.3
2003-06-18 08:39:37 51°14.11 2°41.17 77.2 0.9 79 14.3
2003-06-18 08:39:43 51°14.11 2°41.17 78.6 0.9 80 14.4
2003-06-18 08:39:49 51°14.11 2°41.18 79.5 0.9 83 14.4
2003-06-18 08:39:53 51°14.11 2°41.18 80.1 0.9 92 14.4
2003-06-18 08:39:57 51°14.11 2°41.18 80.7 0.8 87 14.3
2003-06-18 08:40:03 51°14.11 2°41.18 81.2 0.8 98 14.3
2003-06-18 08:40:09 51°14.11 2°41.18 81.5 0.8 96 14.4
2003-06-18 08:40:13 51°14.11 2°41.18 81.4 0.8 95 14.4
2003-06-18 08:40:17 51°14.11 2°41.19 81.3 0.8 95 14.3
2003-06-18 08:40:23 51°14.11 2°41.19 80.9 0.8 99 14.2
2003-06-18 08:40:29 51°14.11 2°41.19 80.5 0.7 99 14.2
2003-06-18 08:40:33 51°14.11 2°41.19 79.8 0.7 101 14.3
2003-06-18 08:40:37 51°14.11 2°41.19 79.1 0.7 94 14.3
2003-06-18 08:40:43 51°14.11 2°41.19 78.6 0.7 101 14.4
2003-06-18 08:40:49 51°14.11 2°41.2 77.7 0.7 99 14.4
2003-06-18 08:40:53 51°14.11 2°41.2 76.9 0.6 101 14.4
2003-06-18 08:40:57 51°14.11 2°41.2 76 0.6 93 14.5
2003-06-18 08:41:03 51°14.11 2°41.2 75.1 0.6 99 14.4
2003-06-18 08:41:09 51°14.11 2°41.2 74.1 0.5 94 14.4
2003-06-18 08:41:13 51°14.11 2°41.2 73.1 0.6 90 14.4
2003-06-18 08:41:17 51°14.11 2°41.2 72.4 0.5 90 14.4
2003-06-18 08:41:23 51°14.11 2°41.2 71.3 0.5 83 14.4
2003-06-18 08:41:29 51°14.11 2°41.21 69.8 0.4 85 14.4
2003-06-18 08:41:33 51°14.11 2°41.21 69.1 0.4 85 14.4
2003-06-18 08:41:37 51°14.11 2°41.21 67.9 0.4 85 14.4
2003-06-18 08:41:43 51°14.11 2°41.21 66.8 0.4 82 14.4
2003-06-18 08:41:49 51°14.11 2°41.21 66 0.3 74 14.5
2003-06-18 08:41:53 51°14.11 2°41.21 65.3 0.3 74 14.4
2003-06-18 08:41:57 51°14.11 2°41.21 64.2 0.3 63 14.5
2003-06-18 08:42:03 51°14.11 2°41.21 63.1 0.3 70 14.6
2003-06-18 08:42:09 51°14.11 2°41.21 62.2 0.3 64 14.5
2003-06-18 08:42:13 51°14.11 2°41.21 61.2 0.3 54 14.5
2003-06-18 08:42:17 51°14.11 2°41.21 60.2 0.2 40 14.5
2003-06-18 08:42:23 51°14.11 2°41.21 59.2 0.3 29 14.5
2003-06-18 08:42:29 51°14.11 2°41.21 58.4 0.3 30 14.4
2003-06-18 08:42:33 51°14.11 2°41.21 57.5 0.2 27 14.5
2003-06-18 08:42:37 51°14.11 2°41.21 56.6 0.2 33 14.5
2003-06-18 08:42:43 51°14.11 2°41.21 55.4 0.2 9 14.5
2003-06-18 08:42:49 51°14.12 2°41.21 54.5 0.2 12 14.5
2003-06-18 08:42:53 51°14.12 2°41.21 53.7 0.1 16 14.5
2003-06-18 08:42:57 51°14.12 2°41.21 52.9 0.2 3 14.5
2003-06-18 08:43:03 51°14.12 2°41.21 52 0.2 4 14.5
2003-06-18 08:43:09 51°14.12 2°41.21 51.5 0.3 343 14.5
2003-06-18 08:43:13 51°14.12 2°41.21 50.9 0.2 1 14.5
2003-06-18 08:43:17 51°14.12 2°41.21 50.1 0.3 336 14.5
2003-06-18 08:43:23 51°14.12 2°41.21 49.4 0.2 350 14.4
2003-06-18 08:43:29 51°14.12 2°41.21 48.4 0.3 331 14.5
2003-06-18 08:43:33 51°14.12 2°41.21 47.9 0.3 326 14.5
2003-06-18 08:43:37 51°14.12 2°41.21 47 0.3 328 14.5
2003-06-18 08:43:43 51°14.12 2°41.21 46.1 0.3 328 14.6
2003-06-18 08:43:49 51°14.12 2°41.21 45.4 0.3 321 14.5
2003-06-18 08:43:53 51°14.12 2°41.21 44.5 0.3 324 14.5
2003-06-18 08:43:57 51°14.12 2°41.21 43.5 0.4 322 14.5
2003-06-18 08:44:03 51°14.12 2°41.21 42.8 0.4 320 14.5
2003-06-18 08:44:09 51°14.12 2°41.21 42 0.4 322 14.5
2003-06-18 08:44:13 51°14.12 2°41.21 41.4 0.4 320 14.5
2003-06-18 08:44:17 51°14.12 2°41.21 40.8 0.4 313 14.5
2003-06-18 08:44:23 51°14.12 2°41.21 40.1 0.5 314 14.4
2003-06-18 08:44:29 51°14.12 2°41.21 39.2 0.4 313 14.4
2003-06-18 08:44:33 51°14.12 2°41.21 38.8 0.5 308 14.4
2003-06-18 08:44:37 51°14.12 2°41.2 38.1 0.4 307 14.4
2003-06-18 08:44:43 51°14.12 2°41.2 37.3 0.5 305 14.4
2003-06-18 08:44:49 51°14.12 2°41.2 36.5 0.5 304 14.3
2003-06-18 08:44:53 51°14.12 2°41.2 35.9 0.4 308 14.3
2003-06-18 08:44:57 51°14.12 2°41.2 35.2 0.5 300 14.3
2003-06-18 08:45:03 51°14.12 2°41.2 34.5 0.4 298 14.3
2003-06-18 08:45:09 51°14.12 2°41.2 33.8 0.5 296 14.3
2003-06-18 08:45:13 51°14.12 2°41.2 33.3 0.5 295 14.3
2003-06-18 08:45:17 51°14.12 2°41.2 32.4 0.5 293 14.2
2003-06-18 08:45:23 51°14.13 2°41.2 31.9 0.5 292 14.3
2003-06-18 08:45:29 51°14.13 2°41.2 31.2 0.4 291 14.2
2003-06-18 08:45:33 51°14.13 2°41.2 30.5 0.5 291 14.2
2003-06-18 08:45:37 51°14.13 2°41.19 29.8 0.5 288 14.2
2003-06-18 08:45:43 51°14.13 2°41.19 29.5 0.5 294 14.2
2003-06-18 08:45:49 51°14.13 2°41.19 29 0.5 291 14.3
2003-06-18 08:45:53 51°14.13 2°41.19 28.6 0.5 296 14.2
2003-06-18 08:45:57 51°14.13 2°41.19 28.3 0.5 298 14.2
2003-06-18 08:46:03 51°14.13 2°41.19 28.1 0.5 293 14.2
2003-06-18 08:46:09 51°14.13 2°41.19 27.9 0.5 299 14.2
2003-06-18 08:46:13 51°14.13 2°41.19 28 0.5 296 14.2
2003-06-18 08:46:17 51°14.13 2°41.19 28.2 0.5 297 14.2
2003-06-18 08:46:23 51°14.13 2°41.19 27.9 0.5 296 14.1
2003-06-18 08:46:29 51°14.13 2°41.18 28 0.5 301 14.2
2003-06-18 08:46:33 51°14.13 2°41.18 28.3 0.5 303 14.2
2003-06-18 08:46:37 51°14.13 2°41.18 28.6 0.5 301 14.2
2003-06-18 08:46:43 51°14.13 2°41.18 28.8 0.5 304 14.1
2003-06-18 08:46:49 51°14.13 2°41.18 29.1 0.5 303 14.2
2003-06-18 08:46:53 51°14.13 2°41.18 29.4 0.5 305 14.2
2003-06-18 08:46:57 51°14.13 2°41.18 29.7 0.5 302 14.2
2003-06-18 08:47:03 51°14.13 2°41.18 29.9 0.5 304 14.2
2003-06-18 08:47:09 51°14.13 2°41.18 30 0.4 310 14.2
2003-06-18 08:47:13 51°14.13 2°41.18 30.1 0.5 305 14.1
2003-06-18 08:47:17 51°14.13 2°41.18 30.1 0.5 306 14.2
2003-06-18 08:47:23 51°14.13 2°41.17 30 0.5 308 14.1
2003-06-18 08:47:29 51°14.13 2°41.17 30.1 0.5 310 14.2
2003-06-18 08:47:33 51°14.13 2°41.17 30 0.6 310 14.2
2003-06-18 08:47:37 51°14.13 2°41.17 29.9 0.6 313 14.1
2003-06-18 08:47:43 51°14.14 2°41.17 29.8 0.6 313 14.1
2003-06-18 08:47:49 51°14.14 2°41.17 29.7 0.6 315 14
2003-06-18 08:47:53 51°14.14 2°41.17 29.7 0.6 314 14
2003-06-18 08:47:57 51°14.14 2°41.17 29.7 0.6 315 14
2003-06-18 08:48:03 51°14.14 2°41.17 29.7 0.6 317 14
2003-06-18 08:48:09 51°14.14 2°41.17 29.8 0.6 315 14
2003-06-18 08:48:13 51°14.14 2°41.17 29.7 0.6 316 14
2003-06-18 08:48:17 51°14.14 2°41.16 29.7 0.6 318 14
2003-06-18 08:48:23 51°14.14 2°41.16 30 0.6 320 14
2003-06-18 08:48:29 51°14.14 2°41.16 30.4 0.6 318 14
2003-06-18 08:48:33 51°14.14 2°41.16 30.4 0.5 323 14
2003-06-18 08:48:37 51°14.14 2°41.16 30.6 0.6 321 14
2003-06-18 08:48:43 51°14.14 2°41.16 30.6 0.5 322 13.9
2003-06-18 08:48:49 51°14.14 2°41.16 30.9 0.6 321 14
2003-06-18 08:48:53 51°14.14 2°41.16 30.9 0.5 319 14
2003-06-18 08:48:57 51°14.14 2°41.16 31.1 0.6 321 14
2003-06-18 08:49:03 51°14.14 2°41.16 31.2 0.6 318 14
2003-06-18 08:49:09 51°14.15 2°41.16 31.3 0.6 324 14
2003-06-18 08:49:13 51°14.15 2°41.16 31.6 0.6 323 13.9
2003-06-18 08:49:17 51°14.15 2°41.15 31.6 0.6 324 13.9
2003-06-18 08:49:23 51°14.15 2°41.15 31.8 0.6 323 13.9
2003-06-18 08:49:29 51°14.15 2°41.15 31.9 0.5 324 13.9
2003-06-18 08:49:33 51°14.15 2°41.15 32.1 0.6 321 13.9
2003-06-18 08:49:37 51°14.15 2°41.15 32.2 0.5 323 13.9
2003-06-18 08:49:43 51°14.15 2°41.15 32.5 0.5 325 13.9
2003-06-18 08:49:49 51°14.15 2°41.15 32.6 0.5 323 13.9
2003-06-18 08:49:53 51°14.15 2°41.15 32.9 0.6 323 13.8
2003-06-18 08:49:57 51°14.15 2°41.15 33 0.6 323 13.8
2003-06-18 08:50:03 51°14.15 2°41.15 33.1 0.5 325 13.9
2003-06-18 08:50:09 51°14.15 2°41.15 33.3 0.6 323 13.8
2003-06-18 08:50:13 51°14.15 2°41.15 33 0.5 323 13.8
2003-06-18 08:50:17 51°14.15 2°41.15 33.1 0.5 320 13.8
2003-06-18 08:50:23 51°14.15 2°41.15 33.3 0.5 327 13.8
2003-06-18 08:50:29 51°14.16 2°41.14 33.3 0.5 323 13.8
2003-06-18 08:50:33 51°14.16 2°41.14 33.3 0.5 321 13.8
2003-06-18 08:50:37 51°14.16 2°41.14 33.3 0.5 322 13.8
2003-06-18 08:50:43 51°14.16 2°41.14 33.5 0.6 323 13.8
2003-06-18 08:50:49 51°14.16 2°41.14 33.6 0.5 329 13.8
2003-06-18 08:50:53 51°14.16 2°41.14 34.1 0.5 326 13.8
2003-06-18 08:50:57 51°14.16 2°41.14 34.3 0.5 329 13.8
2003-06-18 08:51:03 51°14.16 2°41.14 34.6 0.5 328 13.8
2003-06-18 08:51:09 51°14.16 2°41.14 35 0.5 326 13.8
2003-06-18 08:51:13 51°14.16 2°41.14 35.3 0.5 331 13.7
2003-06-18 08:51:17 51°14.16 2°41.14 35.4 0.5 328 13.7
2003-06-18 08:51:23 51°14.16 2°41.14 35.1 0.5 325 13.7
2003-06-18 08:51:29 51°14.16 2°41.14 34.8 0.5 324 13.7
2003-06-18 08:51:33 51°14.16 2°41.14 34.4 0.5 319 13.7
2003-06-18 08:51:37 51°14.16 2°41.14 33.8 0.5 324 13.7
2003-06-18 08:51:43 51°14.16 2°41.13 33.2 0.5 318 13.7
2003-06-18 08:51:49 51°14.16 2°41.13 32.6 0.5 314 13.7
2003-06-18 08:51:53 51°14.16 2°41.13 31.8 0.5 316 13.7
2003-06-18 08:51:57 51°14.16 2°41.13 31 0.5 311 13.7
2003-06-18 08:52:03 51°14.17 2°41.13 30.2 0.6 309 13.7
2003-06-18 08:52:09 51°14.17 2°41.13 29.4 0.6 306 13.7
2003-06-18 08:52:13 51°14.17 2°41.13 28.7 0.6 306 13.7
2003-06-18 08:52:17 51°14.17 2°41.13 27.8 0.5 310 13.7
2003-06-18 08:52:23 51°14.17 2°41.13 27.2 0.5 304 13.7
2003-06-18 08:52:29 51°14.17 2°41.13 26.8 0.5 300 13.6
2003-06-18 08:52:33 51°14.17 2°41.13 26.6 0.5 300 13.7
2003-06-18 08:52:37 51°14.17 2°41.12 26.1 0.5 299 13.6
2003-06-18 08:52:43 51°14.17 2°41.12 25.9 0.5 298 13.6
2003-06-18 08:52:49 51°14.17 2°41.12 25.8 0.5 295 13.7
2003-06-18 08:52:53 51°14.17 2°41.12 25.3 0.5 298 13.6
2003-06-18 08:52:57 51°14.17 2°41.12 24.7 0.5 294 13.7
2003-06-18 08:53:03 51°14.17 2°41.12 24.5 0.5 294 13.6
2003-06-18 08:53:09 51°14.17 2°41.12 23.9 0.6 293 13.6
2003-06-18 08:53:13 51°14.17 2°41.12 23.3 0.5 289 13.6
2003-06-18 08:53:17 51°14.17 2°41.12 22.8 0.6 287 13.5
2003-06-18 08:53:23 51°14.17 2°41.11 22.3 0.6 289 13.5
2003-06-18 08:53:29 51°14.17 2°41.11 21.7 0.6 290 13.5
2003-06-18 08:53:33 51°14.17 2°41.11 21.3 0.6 288 13.5
2003-06-18 08:53:37 51°14.17 2°41.11 21 0.6 287 13.5
2003-06-18 08:53:43 51°14.17 2°41.11 20.9 0.6 286 13.4
2003-06-18 08:53:49 51°14.17 2°41.11 20.5 0.6 285 13.5
2003-06-18 08:53:53 51°14.17 2°41.11 20.3 0.6 284 13.5
2003-06-18 08:53:57 51°14.17 2°41.11 19.8 0.6 285 13.5
2003-06-18 08:54:03 51°14.17 2°41.1 19.4 0.7 283 13.5
2003-06-18 08:54:09 51°14.17 2°41.1 18.8 0.6 284 13.6
2003-06-18 08:54:13 51°14.17 2°41.1 18.1 0.7 284 13.5
2003-06-18 08:54:17 51°14.17 2°41.1 17.6 0.6 280 13.5
2003-06-18 08:54:23 51°14.17 2°41.1 17.3 0.6 281 13.6
2003-06-18 08:54:29 51°14.17 2°41.1 16.9 0.7 278 13.6
2003-06-18 08:54:33 51°14.17 2°41.1 16.6 0.6 278 13.5
2003-06-18 08:54:37 51°14.17 2°41.1 16.1 0.6 280 13.5
2003-06-18 08:54:43 51°14.17 2°41.09 15.8 0.6 276 13.5
2003-06-18 08:54:49 51°14.17 2°41.09 15.3 0.6 277 13.5
2003-06-18 08:54:53 51°14.17 2°41.09 15.1 0.6 277 13.5
2003-06-18 08:54:57 51°14.17 2°41.09 14.9 0.6 275 13.5
2003-06-18 08:55:03 51°14.17 2°41.09 14.7 0.6 276 13.5
2003-06-18 08:55:09 51°14.17 2°41.09 14.5 0.6 276 13.5
2003-06-18 08:55:13 51°14.17 2°41.09 14.3 0.6 277 13.4
2003-06-18 08:55:17 51°14.17 2°41.08 14.1 0.6 270 13.4
2003-06-18 08:55:23 51°14.17 2°41.08 14.1 0.6 271 13.4
2003-06-18 08:55:29 51°14.17 2°41.08 13.9 0.6 274 13.4
2003-06-18 08:55:33 51°14.17 2°41.08 13.8 0.6 271 13.4
2003-06-18 08:55:37 51°14.17 2°41.08 13.5 0.7 271 13.4
2003-06-18 08:55:43 51°14.17 2°41.08 13.1 0.6 271 13.5
2003-06-18 08:55:49 51°14.17 2°41.08 13 0.7 272 13.5
2003-06-18 08:55:53 51°14.17 2°41.07 12.9 0.6 273 13.4
2003-06-18 08:55:57 51°14.17 2°41.07 12.5 0.7 273 13.4
2003-06-18 08:56:03 51°14.17 2°41.07 12.2 0.7 272 13.4
2003-06-18 08:56:09 51°14.18 2°41.07 11.9 0.6 270 13.4
2003-06-18 08:56:13 51°14.18 2°41.07 11.6 0.7 272 13.3
2003-06-18 08:56:17 51°14.18 2°41.07 11.4 0.6 273 13.3
2003-06-18 08:56:23 51°14.18 2°41.07 11.1 0.7 271 13.4
2003-06-18 08:56:29 51°14.18 2°41.06 10.7 0.7 273 13.3
2003-06-18 08:56:33 51°14.18 2°41.06 10.4 0.7 275 13.4
2003-06-18 08:56:37 51°14.18 2°41.06 10.1 0.7 278 13.4
2003-06-18 08:56:43 51°14.18 2°41.06 9.9 0.6 284 13.4
2003-06-18 08:56:49 51°14.18 2°41.06 9.7 0.7 285 13.4
2003-06-18 08:56:53 51°14.18 2°41.06 9.6 0.7 288 13.4
2003-06-18 08:56:57 51°14.18 2°41.06 9.4 0.7 290 13.3
2003-06-18 08:57:03 51°14.18 2°41.05 9.4 0.7 296 13.3
2003-06-18 08:57:09 51°14.18 2°41.05 9.3 0.7 294 13.3
2003-06-18 08:57:13 51°14.18 2°41.05 9.5 0.7 299 13.3
2003-06-18 08:57:17 51°14.18 2°41.05 9.4 0.8 299 13.4
2003-06-18 08:57:23 51°14.18 2°41.05 9.5 0.8 299 13.4
2003-06-18 08:57:29 51°14.18 2°41.05 9.7 0.8 304 13.4
2003-06-18 08:57:33 51°14.18 2°41.05 9.8 0.8 303 13.4
2003-06-18 08:57:37 51°14.18 2°41.04 9.9 0.8 309 13.4
2003-06-18 08:57:43 51°14.18 2°41.04 9.9 0.8 308 13.4
2003-06-18 08:57:49 51°14.18 2°41.04 9.7 0.8 309 13.4
2003-06-18 08:57:53 51°14.18 2°41.04 9.7 0.8 309 13.3
2003-06-18 08:57:57 51°14.18 2°41.04 10 0.8 312 13.2
2003-06-18 08:58:03 51°14.18 2°41.04 10 0.9 314 13.2
2003-06-18 08:58:09 51°14.19 2°41.04 10 0.9 312 13.3
2003-06-18 08:58:13 51°14.19 2°41.03 10.2 0.9 313 13.2
2003-06-18 08:58:17 51°14.19 2°41.03 10.5 0.9 315 13.3
2003-06-18 08:58:23 51°14.19 2°41.03 10.6 0.9 315 13.3
2003-06-18 08:58:29 51°14.19 2°41.03 10.6 0.9 316 13.3
2003-06-18 08:58:33 51°14.19 2°41.03 10.6 0.9 316 13.4
2003-06-18 08:58:37 51°14.19 2°41.03 10.6 0.9 318 13.4
2003-06-18 08:58:43 51°14.19 2°41.03 10.5 1 316 13.3
2003-06-18 08:58:49 51°14.19 2°41.02 10.2 1 318 13.3
2003-06-18 08:58:53 51°14.19 2°41.02 10.1 1 318 13.3
2003-06-18 08:58:57 51°14.19 2°41.02 10 1 317 13.4
2003-06-18 08:59:03 51°14.2 2°41.02 10 1 320 13.3
2003-06-18 08:59:09 51°14.2 2°41.02 10.1 1 318 13.3
2003-06-18 08:59:13 51°14.2 2°41.02 10.2 1 321 13.3
2003-06-18 08:59:17 51°14.2 2°41.02 10.3 1 320 13.3
2003-06-18 08:59:23 51°14.2 2°41.01 10.6 1 320 13.3
2003-06-18 08:59:29 51°14.2 2°41.01 10.8 1 322 13.3
2003-06-18 08:59:33 51°14.2 2°41.01 10.9 1.1 323 13.3
2003-06-18 08:59:37 51°14.2 2°41.01 11 1.1 323 13.2
2003-06-18 08:59:43 51°14.2 2°41.01 11 1.1 323 13.3
2003-06-18 08:59:49 51°14.21 2°41.01 11.4 1 324 13.2
2003-06-18 08:59:53 51°14.21 2°41.01 11.6 1.1 325 13.3
2003-06-18 08:59:57 51°14.21 2°41 11.9 1.1 324 13.3
2003-06-18 09:00:03 51°14.21 2°41 12.2 1.1 326 13.4
2003-06-18 09:00:09 51°14.21 2°41 12.4 1.1 324 13.3
2003-06-18 09:00:13 51°14.21 2°41 12.6 1.1 326 13.3
2003-06-18 09:00:17 51°14.21 2°41 12.6 1.1 325 13.3
2003-06-18 09:00:23 51°14.21 2°41 12.7 1.1 327 13.3
2003-06-18 09:00:29 51°14.22 2°41 12.8 1.1 328 13.3
2003-06-18 09:00:33 51°14.22 2°40.99 13 1.2 327 13.2
2003-06-18 09:00:37 51°14.22 2°40.99 13 1.1 328 13.3
2003-06-18 09:00:43 51°14.22 2°40.99 13.2 1.1 332 13.2
2003-06-18 09:00:49 51°14.22 2°40.99 13.5 1.1 330 13.2
2003-06-18 09:00:53 51°14.22 2°40.99 13.6 1.2 331 13.2
2003-06-18 09:00:57 51°14.22 2°40.99 13.7 1.1 331 13.2
2003-06-18 09:01:03 51°14.23 2°40.99 13.7 1.1 332 13.2
2003-06-18 09:01:09 51°14.23 2°40.99 13.7 1.2 333 13.1
2003-06-18 09:01:13 51°14.23 2°40.98 13.9 1.2 331 13.1
2003-06-18 09:01:17 51°14.23 2°40.98 14.2 1.2 332 13
2003-06-18 09:01:23 51°14.23 2°40.98 14.4 1.1 332 13
2003-06-18 09:01:29 51°14.23 2°40.98 14.5 1.1 335 13
2003-06-18 09:01:33 51°14.23 2°40.98 14.7 1.2 332 13.2
2003-06-18 09:01:37 51°14.23 2°40.98 15.2 1.2 334 13.2
2003-06-18 09:01:43 51°14.24 2°40.98 15.4 1.2 334 13.2
2003-06-18 09:01:49 51°14.24 2°40.98 15.8 1.2 335 13.2
2003-06-18 09:01:53 51°14.24 2°40.98 16 1.1 337 13.3
2003-06-18 09:01:57 51°14.24 2°40.98 16.4 1.1 339 13.2
2003-06-18 09:02:03 51°14.24 2°40.97 16.7 1.1 338 13.1
2003-06-18 09:02:09 51°14.24 2°40.97 17 1.1 338 13.2
2003-06-18 09:02:13 51°14.25 2°40.97 17 1.1 339 13.1
2003-06-18 09:02:17 51°14.25 2°40.97 17.1 1.1 337 13.1
2003-06-18 09:02:23 51°14.25 2°40.97 17.1 1.1 337 13.2
2003-06-18 09:02:29 51°14.25 2°40.97 17.2 1.1 337 13.2
2003-06-18 09:02:33 51°14.25 2°40.97 17.1 1.1 337 13.1
2003-06-18 09:02:37 51°14.25 2°40.97 16.9 1.1 340 13.1
2003-06-18 09:02:43 51°14.25 2°40.97 17 1 337 13.1
2003-06-18 09:02:49 51°14.26 2°40.96 17.1 1.1 337 13
2003-06-18 09:02:53 51°14.26 2°40.96 17.1 1.1 336 13.1
2003-06-18 09:02:57 51°14.26 2°40.96 17.1 1.1 339 13.1
2003-06-18 09:03:03 51°14.26 2°40.96 17.1 1.1 337 13
2003-06-18 09:03:09 51°14.26 2°40.96 17.1 1.1 334 13
2003-06-18 09:03:13 51°14.26 2°40.96 17.3 1 339 13
2003-06-18 09:03:17 51°14.26 2°40.96 17.4 1 336 13
2003-06-18 09:03:23 51°14.26 2°40.96 17.6 1 339 13
2003-06-18 09:03:29 51°14.27 2°40.96 17.6 1 337 12.9
2003-06-18 09:03:33 51°14.27 2°40.96 18.1 1 337 12.9
2003-06-18 09:03:37 51°14.27 2°40.96 18.8 1 338 12.9
2003-06-18 09:03:43 51°14.27 2°40.96 19.5 1 337 12.8
2003-06-18 09:03:49 51°14.27 2°40.95 20.3 1 338 12.9
2003-06-18 09:03:53 51°14.27 2°40.95 20.8 1 339 12.8
2003-06-18 09:03:57 51°14.27 2°40.95 21.6 0.9 341 12.8
2003-06-18 09:04:03 51°14.27 2°40.95 22.5 0.9 342 12.8
2003-06-18 09:04:09 51°14.28 2°40.95 23.1 0.9 343 12.7
2003-06-18 09:04:13 51°14.28 2°40.95 23.9 1 341 12.7
2003-06-18 09:04:17 51°14.28 2°40.95 24.7 0.9 344 12.7
2003-06-18 09:04:23 51°14.28 2°40.95 25.5 0.9 345 12.7
2003-06-18 09:04:29 51°14.28 2°40.95 26.2 1 349 12.7
2003-06-18 09:04:33 51°14.28 2°40.95 26.2 1.2 350 12.6
2003-06-18 09:04:37 51°14.28 2°40.95 25.7 1.4 359 12.7
2003-06-18 09:04:43 51°14.29 2°40.95 23.6 2.4 3 12.6
2003-06-18 09:04:49 51°14.29 2°40.95 19.2 3.2 358 12.6
2003-06-18 09:04:53 51°14.3 2°40.95 13.7 3.7 355 12.6
2003-06-18 09:04:57 51°14.3 2°40.95 7.7 4.2 350 12.6
2003-06-18 09:05:03 51°14.31 2°40.94 2.1 4.7 345 12.6
2003-06-18 09:05:09 51°14.32 2°40.94 356.8 5.3 339 12.6
2003-06-18 09:05:13 51°14.32 2°40.94 351.9 5.7 336 12.7
2003-06-18 09:05:17 51°14.33 2°40.93 347.4 6 332 12.7
2003-06-18 09:05:23 51°14.34 2°40.92 343.4 6.6 330 12.8
2003-06-18 09:05:29 51°14.35 2°40.91 341.1 7.4 329 12.9
2003-06-18 09:05:33 51°14.36 2°40.9 341.8 7.9 331 12.8
2003-06-18 09:05:37 51°14.37 2°40.9 344.4 8.3 334 12.7
2003-06-18 09:05:43 51°14.38 2°40.89 344.7 9.1 334 12.7
2003-06-18 09:05:49 51°14.39 2°40.88 344.3 9.8 334 12.7
2003-06-18 09:05:53 51°14.4 2°40.87 343.3 10.3 333 12.6
2003-06-18 09:05:57 51°14.41 2°40.86 343.7 10.7 333 12.5
2003-06-18 09:06:03 51°14.43 2°40.85 345.4 11.2 336 12.4
2003-06-18 09:06:09 51°14.45 2°40.83 347.1 11.6 338 12.3
2003-06-18 09:06:13 51°14.46 2°40.83 348.8 11.8 339 12.2
2003-06-18 09:06:17 51°14.47 2°40.82 349.8 12 340 12.2
2003-06-18 09:06:23 51°14.49 2°40.81 350.8 12.2 341 12.2
2003-06-18 09:06:29 51°14.51 2°40.8 351.1 12.5 341 12.2
2003-06-18 09:06:33 51°14.53 2°40.79 351.2 12.6 341 12.1
2003-06-18 09:06:37 51°14.54 2°40.79 351.2 12.7 342 12
2003-06-18 09:06:43 51°14.56 2°40.77 351.1 12.9 341 12
2003-06-18 09:06:49 51°14.58 2°40.76 350.9 13.1 341 12
2003-06-18 09:06:53 51°14.59 2°40.76 351 13.2 342 11.7
2003-06-18 09:06:57 51°14.61 2°40.75 351.8 13.2 342 11.6
2003-06-18 09:07:03 51°14.63 2°40.74 352.9 13.2 344 11.5
2003-06-18 09:07:09 51°14.65 2°40.73 353.5 13.3 344 11.6
2003-06-18 09:07:13 51°14.66 2°40.72 354 13.3 345 11.5
2003-06-18 09:07:17 51°14.68 2°40.72 354.4 13.3 345 11.4
2003-06-18 09:07:23 51°14.7 2°40.71 354.8 13.3 345 11.3
2003-06-18 09:07:29 51°14.72 2°40.7 354.8 13.3 345 11.3
2003-06-18 09:07:33 51°14.74 2°40.69 354.9 13.3 346 11.2
2003-06-18 09:07:37 51°14.75 2°40.69 354.8 13.4 345 11.1
2003-06-18 09:07:43 51°14.77 2°40.68 354.8 13.3 346 11.1
2003-06-18 09:07:49 51°14.79 2°40.67 354.5 13.4 345 10.9
2003-06-18 09:07:53 51°14.81 2°40.66 354.2 13.4 345 10.8
2003-06-18 09:07:57 51°14.82 2°40.66 354.4 13.4 345 11.1
2003-06-18 09:08:03 51°14.84 2°40.65 354.8 13.4 346 11.2
2003-06-18 09:08:09 51°14.86 2°40.64 354.4 13.4 345 10.8
2003-06-18 09:08:13 51°14.88 2°40.63 354.6 13.4 345 10.8
2003-06-18 09:08:17 51°14.89 2°40.63 354.4 13.4 345 11.1
2003-06-18 09:08:23 51°14.92 2°40.62 354.2 13.4 345 11.1
2003-06-18 09:08:29 51°14.94 2°40.61 354.2 13.5 346 11.1
2003-06-18 09:08:33 51°14.95 2°40.6 354.5 13.5 346 11.2
2003-06-18 09:08:37 51°14.97 2°40.6 354.6 13.5 346 11.1
2003-06-18 09:08:43 51°14.99 2°40.59 354.3 13.5 346 11.2
2003-06-18 09:08:49 51°15.01 2°40.58 354.1 13.4 345 11
2003-06-18 09:08:53 51°15.02 2°40.57 354.5 13.4 347 10.7
2003-06-18 09:08:57 51°15.04 2°40.57 354.7 13.5 346 11
2003-06-18 09:09:03 51°15.06 2°40.56 354.5 13.4 346 11
2003-06-18 09:09:09 51°15.08 2°40.55 354.2 13.4 346 10.7
2003-06-18 09:09:13 51°15.1 2°40.54 354.2 13.4 346 10.9
2003-06-18 09:09:17 51°15.11 2°40.54 354.3 13.4 346 10.5
2003-06-18 09:09:23 51°15.13 2°40.53 354.5 13.4 347 10.8
2003-06-18 09:09:29 51°15.15 2°40.52 355.6 13.4 348 10.9
2003-06-18 09:09:33 51°15.17 2°40.52 357 13.3 350 10.7
2003-06-18 09:09:37 51°15.18 2°40.51 358.1 13.3 350 10.9
2003-06-18 09:09:43 51°15.21 2°40.51 359 13.3 351 10.8
2003-06-18 09:09:49 51°15.23 2°40.51 1.1 13.3 355 10.7
2003-06-18 09:09:53 51°15.24 2°40.5 3.7 13.3 356 11
2003-06-18 09:09:57 51°15.26 2°40.5 5.8 13.3 359 10.8
2003-06-18 09:10:03 51°15.28 2°40.5 7.5 13.2   11.1
2003-06-18 09:10:09 51°15.3 2°40.51 8.7 13.2 2 11.3
2003-06-18 09:10:13 51°15.32 2°40.51 10.4 13.2 3 11.5
2003-06-18 09:10:17 51°15.33 2°40.51 12.2 13.2 5 11.6
2003-06-18 09:10:23 51°15.35 2°40.51 13.5 13.2 7 11.9
2003-06-18 09:10:29 51°15.37 2°40.52 15.2 13.2 9 11.9
2003-06-18 09:10:33 51°15.39 2°40.52 15.1 13.2 7 12.2
2003-06-18 09:10:37 51°15.4 2°40.52 15.9 13.2 9 11.7
2003-06-18 09:10:43 51°15.42 2°40.53 16.2 13.2 8 11.7
2003-06-18 09:10:49 51°15.45 2°40.54 16.3 13.2 10 12.6
2003-06-18 09:10:53 51°15.46 2°40.54 17.8 13.2 12 12.1
2003-06-18 09:10:57 51°15.47 2°40.55 19.1 13.1 12 12.1
2003-06-18 09:11:03 51°15.5 2°40.55 20.2 13.2 14 12.3
2003-06-18 09:11:09 51°15.52 2°40.56 19.9 13.1 13 12.7
2003-06-18 09:11:13 51°15.53 2°40.57 20.3 13.1 14 13
2003-06-18 09:11:17 51°15.55 2°40.57 20.9 13.2 14 12.9
2003-06-18 09:11:23 51°15.57 2°40.58 21.2 13.1 15 12.8
2003-06-18 09:11:29 51°15.59 2°40.59 21.1 13.1 14 13
2003-06-18 09:11:33 51°15.6 2°40.6 21 13.2 14 13
2003-06-18 09:11:37 51°15.62 2°40.6 21.2 13.1 14 13.4
2003-06-18 09:11:43 51°15.64 2°40.61 20.9 13.1 14 13.1
2003-06-18 09:11:49 51°15.66 2°40.62 21 13.2 14 13.3
2003-06-18 09:11:53 51°15.67 2°40.62 20.3 13.2 13 13.5
2003-06-18 09:11:57 51°15.69 2°40.63 20.4 13.2 14 13.5
2003-06-18 09:12:03 51°15.71 2°40.64 20.3 13.2 13 13.6
2003-06-18 09:12:09 51°15.73 2°40.65 20.6 13.1 15 13.9
2003-06-18 09:12:13 51°15.74 2°40.65 21 13.2 14 13.9
2003-06-18 09:12:17 51°15.76 2°40.66 20.6 13.2 14 14.2
2003-06-18 09:12:23 51°15.78 2°40.67 20.3 13.2 14 14.6
2003-06-18 09:12:29 51°15.8 2°40.67 20.5 13.2 14 14.7
2003-06-18 09:12:33 51°15.81 2°40.68 20 13.2 13 14.8
2003-06-18 09:12:37 51°15.83 2°40.69 19.9 13.2 13 15.1
2003-06-18 09:12:43 51°15.85 2°40.69 19.9 13.2 13 15.2
2003-06-18 09:12:49 51°15.87 2°40.7 19.8 13.1 13 15.4
2003-06-18 09:12:53 51°15.89 2°40.71 19.9 13.1 13 15.6
2003-06-18 09:12:57 51°15.9 2°40.71 20.5 13.1 14 15.7
2003-06-18 09:13:03 51°15.92 2°40.72 20.2 13.1 12 15.9
2003-06-18 09:13:09 51°15.94 2°40.73 20.2 13 14 16
2003-06-18 09:13:13 51°15.96 2°40.73 19.7 13.1 12 16.2
2003-06-18 09:13:17 51°15.97 2°40.74 19.5 13.1 13 16.3
2003-06-18 09:13:23 51°15.99 2°40.75 20.1 13.1 13 16.4
2003-06-18 09:13:29 51°16.01 2°40.75 20.2 13.1 14 16.6
2003-06-18 09:13:33 51°16.03 2°40.76 20 13.1 13 16.9
2003-06-18 09:13:37 51°16.04 2°40.77 19.5 13 13 16.9
2003-06-18 09:13:43 51°16.06 2°40.77 19.5 13 13 16.9
2003-06-18 09:13:49 51°16.08 2°40.78 19.6 13.1 13 17
2003-06-18 09:13:53 51°16.1 2°40.79 19.6 13.1 13 17.2
2003-06-18 09:13:57 51°16.11 2°40.79 20.2 13.1 14 17.3
2003-06-18 09:14:03 51°16.13 2°40.8 20.3 13.1 13 17.4
2003-06-18 09:14:09 51°16.15 2°40.81 19.9 13.1 14 17.6
2003-06-18 09:14:13 51°16.17 2°40.81 19.5 13.1 13 17.7
2003-06-18 09:14:17 51°16.18 2°40.82 19.5 13.1 13 17.7
2003-06-18 09:14:23 51°16.2 2°40.83 19.9 13.1 14 18
2003-06-18 09:14:29 51°16.22 2°40.83 19.4 13 12 18
2003-06-18 09:14:33 51°16.24 2°40.84 19.4 13 13 18.1
2003-06-18 09:14:37 51°16.25 2°40.84 19 13.1 12 18.1
2003-06-18 09:14:43 51°16.27 2°40.85 19.7 13.1 14 18.1
2003-06-18 09:14:49 51°16.3 2°40.86 19.9 12.9 13 18.1
2003-06-18 09:14:53 51°16.31 2°40.86 19.9 12.6 13 18.2
2003-06-18 09:14:57 51°16.32 2°40.87 19.1 12.3 12 18.3
2003-06-18 09:15:03 51°16.34 2°40.87 15.2 11.9 8 18.4
2003-06-18 09:15:09 51°16.36 2°40.88 12.5 11.6 5 18.6
2003-06-18 09:15:13 51°16.37 2°40.88 11.3 11.4 4 18.9